sensor_id;sensor_type;location;lat;lon;timestamp;P1;durP1;ratioP1;P2;durP2;ratioP2
6527;SDS011;64597;42.664;23.256;2023-12-04T00:02:12;3.60;;;2.22;;
6527;SDS011;64597;42.664;23.256;2023-12-04T00:04:37;3.85;;;2.40;;
6527;SDS011;64597;42.664;23.256;2023-12-04T00:07:03;4.47;;;2.00;;
6527;SDS011;64597;42.664;23.256;2023-12-04T00:09:28;4.72;;;2.17;;
6527;SDS011;64597;42.664;23.256;2023-12-04T00:11:53;5.80;;;2.00;;
6527;SDS011;64597;42.664;23.256;2023-12-04T00:14:19;3.70;;;2.20;;
6527;SDS011;64597;42.664;23.256;2023-12-04T00:16:44;3.78;;;1.73;;
6527;SDS011;64597;42.664;23.256;2023-12-04T00:19:10;4.47;;;2.20;;
6527;SDS011;64597;42.664;23.256;2023-12-04T00:21:35;4.80;;;2.08;;
6527;SDS011;64597;42.664;23.256;2023-12-04T00:24:01;4.57;;;2.03;;
6527;SDS011;64597;42.664;23.256;2023-12-04T00:26:26;4.03;;;1.70;;
6527;SDS011;64597;42.664;23.256;2023-12-04T00:28:51;3.17;;;1.60;;
6527;SDS011;64597;42.664;23.256;2023-12-04T00:31:17;3.20;;;1.77;;
6527;SDS011;64597;42.664;23.256;2023-12-04T00:33:42;3.25;;;1.48;;
6527;SDS011;64597;42.664;23.256;2023-12-04T00:36:08;4.35;;;2.08;;
6527;SDS011;64597;42.664;23.256;2023-12-04T00:38:35;4.13;;;2.13;;
6527;SDS011;64597;42.664;23.256;2023-12-04T00:41:00;3.40;;;1.90;;
6527;SDS011;64597;42.664;23.256;2023-12-04T00:43:26;4.90;;;2.08;;
6527;SDS011;64597;42.664;23.256;2023-12-04T00:45:51;4.28;;;2.25;;
6527;SDS011;64597;42.664;23.256;2023-12-04T00:48:16;2.88;;;2.00;;
6527;SDS011;64597;42.664;23.256;2023-12-04T00:50:42;4.15;;;2.05;;
6527;SDS011;64597;42.664;23.256;2023-12-04T00:53:07;2.97;;;2.03;;
6527;SDS011;64597;42.664;23.256;2023-12-04T00:55:33;5.57;;;2.50;;
6527;SDS011;64597;42.664;23.256;2023-12-04T00:57:58;3.28;;;2.17;;
6527;SDS011;64597;42.664;23.256;2023-12-04T01:00:23;4.85;;;2.53;;
6527;SDS011;64597;42.664;23.256;2023-12-04T01:02:49;4.88;;;2.60;;
6527;SDS011;64597;42.664;23.256;2023-12-04T01:05:14;3.53;;;2.08;;
6527;SDS011;64597;42.664;23.256;2023-12-04T01:07:40;3.75;;;2.55;;
6527;SDS011;64597;42.664;23.256;2023-12-04T01:10:05;4.60;;;2.50;;
6527;SDS011;64597;42.664;23.256;2023-12-04T01:12:31;2.65;;;1.90;;
6527;SDS011;64597;42.664;23.256;2023-12-04T01:14:57;4.45;;;2.47;;
6527;SDS011;64597;42.664;23.256;2023-12-04T01:17:22;3.00;;;1.67;;
6527;SDS011;64597;42.664;23.256;2023-12-04T01:19:47;2.78;;;1.98;;
6527;SDS011;64597;42.664;23.256;2023-12-04T01:22:13;3.78;;;2.03;;
6527;SDS011;64597;42.664;23.256;2023-12-04T01:24:38;3.65;;;2.20;;
6527;SDS011;64597;42.664;23.256;2023-12-04T01:27:04;3.83;;;1.65;;
6527;SDS011;64597;42.664;23.256;2023-12-04T01:29:29;4.00;;;2.45;;
6527;SDS011;64597;42.664;23.256;2023-12-04T01:31:56;3.30;;;2.13;;
6527;SDS011;64597;42.664;23.256;2023-12-04T01:34:22;3.70;;;1.77;;
6527;SDS011;64597;42.664;23.256;2023-12-04T01:36:47;5.15;;;2.40;;
6527;SDS011;64597;42.664;23.256;2023-12-04T01:39:13;5.13;;;2.30;;
6527;SDS011;64597;42.664;23.256;2023-12-04T01:41:39;4.60;;;2.47;;
6527;SDS011;64597;42.664;23.256;2023-12-04T01:44:05;5.55;;;2.65;;
6527;SDS011;64597;42.664;23.256;2023-12-04T01:46:30;6.45;;;2.83;;
6527;SDS011;64597;42.664;23.256;2023-12-04T01:48:56;4.90;;;2.55;;
6527;SDS011;64597;42.664;23.256;2023-12-04T01:51:22;5.07;;;2.53;;
6527;SDS011;64597;42.664;23.256;2023-12-04T01:53:48;4.20;;;1.90;;
6527;SDS011;64597;42.664;23.256;2023-12-04T01:56:15;3.90;;;2.40;;
6527;SDS011;64597;42.664;23.256;2023-12-04T01:58:42;5.47;;;2.10;;
6527;SDS011;64597;42.664;23.256;2023-12-04T02:01:08;2.92;;;1.95;;
6527;SDS011;64597;42.664;23.256;2023-12-04T02:03:35;5.45;;;2.90;;
6527;SDS011;64597;42.664;23.256;2023-12-04T02:06:00;2.97;;;2.15;;
6527;SDS011;64597;42.664;23.256;2023-12-04T02:08:28;4.07;;;2.05;;
6527;SDS011;64597;42.664;23.256;2023-12-04T02:10:54;7.75;;;2.60;;
6527;SDS011;64597;42.664;23.256;2023-12-04T02:13:19;4.10;;;2.38;;
6527;SDS011;64597;42.664;23.256;2023-12-04T02:15:45;3.80;;;2.15;;
6527;SDS011;64597;42.664;23.256;2023-12-04T02:18:14;2.83;;;1.80;;
6527;SDS011;64597;42.664;23.256;2023-12-04T02:20:40;4.68;;;2.75;;
6527;SDS011;64597;42.664;23.256;2023-12-04T02:23:06;4.80;;;1.92;;
6527;SDS011;64597;42.664;23.256;2023-12-04T02:25:31;4.57;;;2.10;;
6527;SDS011;64597;42.664;23.256;2023-12-04T02:27:58;3.55;;;2.13;;
6527;SDS011;64597;42.664;23.256;2023-12-04T02:30:26;4.93;;;2.35;;
6527;SDS011;64597;42.664;23.256;2023-12-04T02:32:53;3.75;;;2.13;;
6527;SDS011;64597;42.664;23.256;2023-12-04T02:35:21;4.63;;;2.25;;
6527;SDS011;64597;42.664;23.256;2023-12-04T02:37:49;4.72;;;2.13;;
6527;SDS011;64597;42.664;23.256;2023-12-04T02:40:15;7.15;;;2.17;;
6527;SDS011;64597;42.664;23.256;2023-12-04T02:42:40;5.20;;;1.95;;
6527;SDS011;64597;42.664;23.256;2023-12-04T02:45:06;4.50;;;1.88;;
6527;SDS011;64597;42.664;23.256;2023-12-04T02:47:32;4.28;;;2.00;;
6527;SDS011;64597;42.664;23.256;2023-12-04T02:49:57;2.15;;;1.60;;
6527;SDS011;64597;42.664;23.256;2023-12-04T02:52:23;3.40;;;1.63;;
6527;SDS011;64597;42.664;23.256;2023-12-04T02:54:49;6.05;;;2.47;;
6527;SDS011;64597;42.664;23.256;2023-12-04T02:57:14;8.05;;;2.75;;
6527;SDS011;64597;42.664;23.256;2023-12-04T02:59:39;3.97;;;2.05;;
6527;SDS011;64597;42.664;23.256;2023-12-04T03:02:05;3.80;;;2.25;;
6527;SDS011;64597;42.664;23.256;2023-12-04T03:04:30;4.20;;;2.15;;
6527;SDS011;64597;42.664;23.256;2023-12-04T03:06:56;4.68;;;2.50;;
6527;SDS011;64597;42.664;23.256;2023-12-04T03:09:22;3.80;;;2.03;;
6527;SDS011;64597;42.664;23.256;2023-12-04T03:11:48;5.15;;;2.30;;
6527;SDS011;64597;42.664;23.256;2023-12-04T03:14:13;4.72;;;1.75;;
6527;SDS011;64597;42.664;23.256;2023-12-04T03:16:39;6.03;;;2.30;;
6527;SDS011;64597;42.664;23.256;2023-12-04T03:19:05;3.85;;;2.17;;
6527;SDS011;64597;42.664;23.256;2023-12-04T03:21:30;4.63;;;2.30;;
6527;SDS011;64597;42.664;23.256;2023-12-04T03:23:56;4.57;;;2.25;;
6527;SDS011;64597;42.664;23.256;2023-12-04T03:26:21;3.85;;;1.98;;
6527;SDS011;64597;42.664;23.256;2023-12-04T03:28:47;3.58;;;1.85;;
6527;SDS011;64597;42.664;23.256;2023-12-04T03:31:12;3.55;;;1.88;;
6527;SDS011;64597;42.664;23.256;2023-12-04T03:33:37;5.97;;;2.63;;
6527;SDS011;64597;42.664;23.256;2023-12-04T03:36:03;3.95;;;2.22;;
6527;SDS011;64597;42.664;23.256;2023-12-04T03:38:29;4.72;;;2.15;;
6527;SDS011;64597;42.664;23.256;2023-12-04T03:40:54;4.05;;;2.53;;
6527;SDS011;64597;42.664;23.256;2023-12-04T03:43:20;3.22;;;1.83;;
6527;SDS011;64597;42.664;23.256;2023-12-04T03:45:45;4.32;;;2.35;;
6527;SDS011;64597;42.664;23.256;2023-12-04T03:48:10;3.90;;;2.10;;
6527;SDS011;64597;42.664;23.256;2023-12-04T03:50:36;4.20;;;2.42;;
6527;SDS011;64597;42.664;23.256;2023-12-04T03:53:01;4.80;;;2.45;;
6527;SDS011;64597;42.664;23.256;2023-12-04T03:55:27;4.45;;;2.03;;
6527;SDS011;64597;42.664;23.256;2023-12-04T03:57:53;5.88;;;2.53;;
6527;SDS011;64597;42.664;23.256;2023-12-04T04:00:19;5.18;;;2.20;;
6527;SDS011;64597;42.664;23.256;2023-12-04T04:02:45;5.90;;;2.53;;
6527;SDS011;64597;42.664;23.256;2023-12-04T04:05:11;5.05;;;2.15;;
6527;SDS011;64597;42.664;23.256;2023-12-04T04:07:36;4.30;;;2.10;;
6527;SDS011;64597;42.664;23.256;2023-12-04T04:10:01;4.43;;;2.20;;
6527;SDS011;64597;42.664;23.256;2023-12-04T04:12:29;4.88;;;2.38;;
6527;SDS011;64597;42.664;23.256;2023-12-04T04:14:55;6.00;;;2.97;;
6527;SDS011;64597;42.664;23.256;2023-12-04T04:17:20;4.75;;;2.55;;
6527;SDS011;64597;42.664;23.256;2023-12-04T04:19:45;8.25;;;2.50;;
6527;SDS011;64597;42.664;23.256;2023-12-04T04:22:11;3.72;;;2.17;;
6527;SDS011;64597;42.664;23.256;2023-12-04T04:24:36;3.35;;;2.25;;
6527;SDS011;64597;42.664;23.256;2023-12-04T04:27:02;4.07;;;2.15;;
6527;SDS011;64597;42.664;23.256;2023-12-04T04:29:27;3.35;;;2.17;;
6527;SDS011;64597;42.664;23.256;2023-12-04T04:31:53;4.43;;;2.03;;
6527;SDS011;64597;42.664;23.256;2023-12-04T04:34:22;3.85;;;2.10;;
6527;SDS011;64597;42.664;23.256;2023-12-04T04:36:48;4.65;;;2.50;;
6527;SDS011;64597;42.664;23.256;2023-12-04T04:39:14;3.25;;;2.00;;
6527;SDS011;64597;42.664;23.256;2023-12-04T04:41:39;2.40;;;1.75;;
6527;SDS011;64597;42.664;23.256;2023-12-04T04:44:05;5.30;;;2.63;;
6527;SDS011;64597;42.664;23.256;2023-12-04T04:46:31;7.15;;;2.60;;
6527;SDS011;64597;42.664;23.256;2023-12-04T04:48:56;5.75;;;2.78;;
6527;SDS011;64597;42.664;23.256;2023-12-04T04:51:22;3.38;;;2.13;;
6527;SDS011;64597;42.664;23.256;2023-12-04T04:53:48;3.47;;;2.03;;
6527;SDS011;64597;42.664;23.256;2023-12-04T04:56:14;4.38;;;2.03;;
6527;SDS011;64597;42.664;23.256;2023-12-04T04:58:39;3.42;;;2.35;;
6527;SDS011;64597;42.664;23.256;2023-12-04T05:01:06;3.97;;;1.73;;
6527;SDS011;64597;42.664;23.256;2023-12-04T05:03:32;5.95;;;1.95;;
6527;SDS011;64597;42.664;23.256;2023-12-04T05:05:57;5.10;;;2.15;;
6527;SDS011;64597;42.664;23.256;2023-12-04T05:08:22;4.28;;;2.17;;
6527;SDS011;64597;42.664;23.256;2023-12-04T05:10:48;3.55;;;2.08;;
6527;SDS011;64597;42.664;23.256;2023-12-04T05:13:14;4.93;;;2.00;;
6527;SDS011;64597;42.664;23.256;2023-12-04T05:15:39;3.45;;;1.92;;
6527;SDS011;64597;42.664;23.256;2023-12-04T05:18:05;4.25;;;2.08;;
6527;SDS011;64597;42.664;23.256;2023-12-04T05:20:30;5.50;;;2.45;;
6527;SDS011;64597;42.664;23.256;2023-12-04T05:22:56;3.60;;;1.75;;
6527;SDS011;64597;42.664;23.256;2023-12-04T05:25:22;3.22;;;1.67;;
6527;SDS011;64597;42.664;23.256;2023-12-04T05:27:48;3.70;;;1.77;;
6527;SDS011;64597;42.664;23.256;2023-12-04T05:30:13;3.28;;;2.08;;
6527;SDS011;64597;42.664;23.256;2023-12-04T05:32:39;3.10;;;2.17;;
6527;SDS011;64597;42.664;23.256;2023-12-04T05:35:05;3.38;;;2.55;;
6527;SDS011;64597;42.664;23.256;2023-12-04T05:37:30;3.50;;;2.05;;
6527;SDS011;64597;42.664;23.256;2023-12-04T05:39:56;5.22;;;1.88;;
6527;SDS011;64597;42.664;23.256;2023-12-04T05:42:21;5.85;;;2.38;;
6527;SDS011;64597;42.664;23.256;2023-12-04T05:44:47;5.63;;;2.95;;
6527;SDS011;64597;42.664;23.256;2023-12-04T05:47:12;5.15;;;2.85;;
6527;SDS011;64597;42.664;23.256;2023-12-04T05:49:39;8.88;;;3.53;;
6527;SDS011;64597;42.664;23.256;2023-12-04T05:52:09;7.95;;;3.05;;
6527;SDS011;64597;42.664;23.256;2023-12-04T05:54:35;6.63;;;3.42;;
6527;SDS011;64597;42.664;23.256;2023-12-04T05:57:01;6.55;;;3.40;;
6527;SDS011;64597;42.664;23.256;2023-12-04T05:59:26;6.32;;;3.58;;
6527;SDS011;64597;42.664;23.256;2023-12-04T06:01:52;6.32;;;3.40;;
6527;SDS011;64597;42.664;23.256;2023-12-04T06:04:17;6.82;;;3.30;;
6527;SDS011;64597;42.664;23.256;2023-12-04T06:06:43;9.38;;;3.92;;
6527;SDS011;64597;42.664;23.256;2023-12-04T06:09:08;6.20;;;3.50;;
6527;SDS011;64597;42.664;23.256;2023-12-04T06:11:33;5.85;;;3.30;;
6527;SDS011;64597;42.664;23.256;2023-12-04T06:13:59;5.95;;;3.40;;
6527;SDS011;64597;42.664;23.256;2023-12-04T06:16:24;7.70;;;3.65;;
6527;SDS011;64597;42.664;23.256;2023-12-04T06:18:50;8.32;;;3.58;;
6527;SDS011;64597;42.664;23.256;2023-12-04T06:21:15;7.55;;;3.67;;
6527;SDS011;64597;42.664;23.256;2023-12-04T06:23:41;9.57;;;4.22;;
6527;SDS011;64597;42.664;23.256;2023-12-04T06:26:08;5.25;;;2.80;;
6527;SDS011;64597;42.664;23.256;2023-12-04T06:28:34;8.23;;;2.72;;
6527;SDS011;64597;42.664;23.256;2023-12-04T06:31:00;7.68;;;2.83;;
6527;SDS011;64597;42.664;23.256;2023-12-04T06:33:25;3.83;;;2.15;;
6527;SDS011;64597;42.664;23.256;2023-12-04T06:35:51;6.03;;;2.70;;
6527;SDS011;64597;42.664;23.256;2023-12-04T06:38:17;3.45;;;2.50;;
6527;SDS011;64597;42.664;23.256;2023-12-04T06:40:49;9.68;;;2.65;;
6527;SDS011;64597;42.664;23.256;2023-12-04T06:43:14;6.80;;;3.38;;
6527;SDS011;64597;42.664;23.256;2023-12-04T06:48:09;7.70;;;3.72;;
6527;SDS011;64597;42.664;23.256;2023-12-04T06:50:38;8.18;;;4.15;;
6527;SDS011;64597;42.664;23.256;2023-12-04T06:53:03;3.63;;;2.22;;
6527;SDS011;64597;42.664;23.256;2023-12-04T06:55:29;4.60;;;2.30;;
6527;SDS011;64597;42.664;23.256;2023-12-04T06:57:54;5.22;;;2.35;;
6527;SDS011;64597;42.664;23.256;2023-12-04T07:00:20;3.92;;;2.50;;
6527;SDS011;64597;42.664;23.256;2023-12-04T07:02:46;5.35;;;2.72;;
6527;SDS011;64597;42.664;23.256;2023-12-04T07:05:11;4.30;;;2.63;;
6527;SDS011;64597;42.664;23.256;2023-12-04T07:07:36;4.13;;;2.40;;
6527;SDS011;64597;42.664;23.256;2023-12-04T07:10:02;4.95;;;2.63;;
6527;SDS011;64597;42.664;23.256;2023-12-04T07:12:28;5.95;;;3.55;;
6527;SDS011;64597;42.664;23.256;2023-12-04T07:14:53;3.97;;;2.63;;
6527;SDS011;64597;42.664;23.256;2023-12-04T07:17:18;3.78;;;2.47;;
6527;SDS011;64597;42.664;23.256;2023-12-04T07:19:45;5.35;;;3.42;;
6527;SDS011;64597;42.664;23.256;2023-12-04T07:22:11;4.10;;;2.80;;
6527;SDS011;64597;42.664;23.256;2023-12-04T07:24:36;5.88;;;3.25;;
6527;SDS011;64597;42.664;23.256;2023-12-04T07:27:01;4.95;;;2.90;;
6527;SDS011;64597;42.664;23.256;2023-12-04T07:29:27;5.50;;;3.08;;
6527;SDS011;64597;42.664;23.256;2023-12-04T07:31:53;5.75;;;3.10;;
6527;SDS011;64597;42.664;23.256;2023-12-04T07:34:19;5.32;;;3.00;;
6527;SDS011;64597;42.664;23.256;2023-12-04T07:36:44;6.40;;;3.35;;
6527;SDS011;64597;42.664;23.256;2023-12-04T07:39:10;5.05;;;3.00;;
6527;SDS011;64597;42.664;23.256;2023-12-04T07:41:36;5.55;;;3.40;;
6527;SDS011;64597;42.664;23.256;2023-12-04T07:44:01;4.85;;;3.42;;
6527;SDS011;64597;42.664;23.256;2023-12-04T07:46:27;4.47;;;2.75;;
6527;SDS011;64597;42.664;23.256;2023-12-04T07:51:21;5.68;;;2.83;;
6527;SDS011;64597;42.664;23.256;2023-12-04T07:53:46;4.30;;;3.35;;
6527;SDS011;64597;42.664;23.256;2023-12-04T07:56:12;5.35;;;3.15;;
6527;SDS011;64597;42.664;23.256;2023-12-04T07:58:38;7.28;;;4.43;;
6527;SDS011;64597;42.664;23.256;2023-12-04T08:01:04;8.35;;;4.40;;
6527;SDS011;64597;42.664;23.256;2023-12-04T08:03:31;5.70;;;3.20;;
6527;SDS011;64597;42.664;23.256;2023-12-04T08:05:57;5.78;;;3.05;;
6527;SDS011;64597;42.664;23.256;2023-12-04T08:08:23;5.95;;;3.40;;
6527;SDS011;64597;42.664;23.256;2023-12-04T08:10:49;5.65;;;2.88;;
6527;SDS011;64597;42.664;23.256;2023-12-04T08:13:15;6.05;;;3.58;;
6527;SDS011;64597;42.664;23.256;2023-12-04T08:15:41;8.13;;;3.20;;
6527;SDS011;64597;42.664;23.256;2023-12-04T08:18:07;8.00;;;3.38;;
6527;SDS011;64597;42.664;23.256;2023-12-04T08:20:32;6.15;;;3.75;;
6527;SDS011;64597;42.664;23.256;2023-12-04T08:22:58;6.25;;;3.10;;
6527;SDS011;64597;42.664;23.256;2023-12-04T08:25:23;6.47;;;3.25;;
6527;SDS011;64597;42.664;23.256;2023-12-04T08:27:48;6.32;;;2.97;;
6527;SDS011;64597;42.664;23.256;2023-12-04T08:30:14;5.60;;;3.60;;
6527;SDS011;64597;42.664;23.256;2023-12-04T08:32:40;5.00;;;3.33;;
6527;SDS011;64597;42.664;23.256;2023-12-04T08:35:06;3.60;;;2.47;;
6527;SDS011;64597;42.664;23.256;2023-12-04T08:37:31;4.85;;;2.50;;
6527;SDS011;64597;42.664;23.256;2023-12-04T08:39:57;5.38;;;2.70;;
6527;SDS011;64597;42.664;23.256;2023-12-04T08:42:22;5.15;;;3.95;;
6527;SDS011;64597;42.664;23.256;2023-12-04T08:44:50;3.65;;;2.40;;
6527;SDS011;64597;42.664;23.256;2023-12-04T08:47:27;5.72;;;3.22;;
6527;SDS011;64597;42.664;23.256;2023-12-04T08:49:53;23.65;;;10.68;;
6527;SDS011;64597;42.664;23.256;2023-12-04T08:52:18;18.55;;;8.98;;
6527;SDS011;64597;42.664;23.256;2023-12-04T08:54:44;9.60;;;4.38;;
6527;SDS011;64597;42.664;23.256;2023-12-04T08:57:09;3.25;;;2.00;;
6527;SDS011;64597;42.664;23.256;2023-12-04T08:59:35;5.45;;;3.03;;
6527;SDS011;64597;42.664;23.256;2023-12-04T09:02:00;5.15;;;2.95;;
6527;SDS011;64597;42.664;23.256;2023-12-04T09:04:32;4.68;;;2.70;;
6527;SDS011;64597;42.664;23.256;2023-12-04T09:06:58;6.53;;;3.50;;
6527;SDS011;64597;42.664;23.256;2023-12-04T09:09:24;3.03;;;2.25;;
6527;SDS011;64597;42.664;23.256;2023-12-04T09:11:50;3.95;;;2.30;;
6527;SDS011;64597;42.664;23.256;2023-12-04T09:14:15;5.03;;;3.63;;
6527;SDS011;64597;42.664;23.256;2023-12-04T09:16:41;4.07;;;2.55;;
6527;SDS011;64597;42.664;23.256;2023-12-04T09:19:08;3.88;;;2.45;;
6527;SDS011;64597;42.664;23.256;2023-12-04T09:21:33;5.35;;;2.70;;
6527;SDS011;64597;42.664;23.256;2023-12-04T09:24:00;4.80;;;2.40;;
6527;SDS011;64597;42.664;23.256;2023-12-04T09:26:26;4.47;;;3.05;;
6527;SDS011;64597;42.664;23.256;2023-12-04T09:28:52;2.95;;;2.05;;
6527;SDS011;64597;42.664;23.256;2023-12-04T09:31:17;3.00;;;1.92;;
6527;SDS011;64597;42.664;23.256;2023-12-04T09:33:43;4.13;;;2.53;;
6527;SDS011;64597;42.664;23.256;2023-12-04T09:36:08;4.00;;;2.78;;
6527;SDS011;64597;42.664;23.256;2023-12-04T09:38:34;5.25;;;2.38;;
6527;SDS011;64597;42.664;23.256;2023-12-04T09:41:01;6.97;;;3.25;;
6527;SDS011;64597;42.664;23.256;2023-12-04T09:43:30;3.55;;;2.20;;
6527;SDS011;64597;42.664;23.256;2023-12-04T09:46:02;4.53;;;2.53;;
6527;SDS011;64597;42.664;23.256;2023-12-04T09:48:33;4.45;;;2.20;;
6527;SDS011;64597;42.664;23.256;2023-12-04T09:51:00;4.30;;;3.13;;
6527;SDS011;64597;42.664;23.256;2023-12-04T09:53:27;8.60;;;4.95;;
6527;SDS011;64597;42.664;23.256;2023-12-04T09:55:57;7.82;;;4.32;;
6527;SDS011;64597;42.664;23.256;2023-12-04T09:58:25;5.40;;;2.58;;
6527;SDS011;64597;42.664;23.256;2023-12-04T10:00:57;3.00;;;2.28;;
6527;SDS011;64597;42.664;23.256;2023-12-04T10:03:25;3.35;;;2.40;;
6527;SDS011;64597;42.664;23.256;2023-12-04T10:05:54;6.82;;;2.97;;
6527;SDS011;64597;42.664;23.256;2023-12-04T10:08:21;5.10;;;3.05;;
6527;SDS011;64597;42.664;23.256;2023-12-04T10:10:47;5.68;;;3.10;;
6527;SDS011;64597;42.664;23.256;2023-12-04T10:13:12;4.90;;;2.70;;
6527;SDS011;64597;42.664;23.256;2023-12-04T10:15:47;4.65;;;2.53;;
6527;SDS011;64597;42.664;23.256;2023-12-04T10:18:26;7.28;;;4.18;;
6527;SDS011;64597;42.664;23.256;2023-12-04T10:20:55;4.47;;;2.75;;
6527;SDS011;64597;42.664;23.256;2023-12-04T10:23:21;3.95;;;2.55;;
6527;SDS011;64597;42.664;23.256;2023-12-04T10:25:50;3.00;;;2.10;;
6527;SDS011;64597;42.664;23.256;2023-12-04T10:28:16;4.38;;;2.50;;
6527;SDS011;64597;42.664;23.256;2023-12-04T10:30:43;3.63;;;2.42;;
6527;SDS011;64597;42.664;23.256;2023-12-04T10:33:08;4.97;;;2.67;;
6527;SDS011;64597;42.664;23.256;2023-12-04T10:35:35;5.05;;;2.70;;
6527;SDS011;64597;42.664;23.256;2023-12-04T10:38:02;4.95;;;2.90;;
6527;SDS011;64597;42.664;23.256;2023-12-04T10:40:29;6.50;;;3.10;;
6527;SDS011;64597;42.664;23.256;2023-12-04T10:43:18;8.55;;;2.42;;
6527;SDS011;64597;42.664;23.256;2023-12-04T10:45:49;7.35;;;2.47;;
6527;SDS011;64597;42.664;23.256;2023-12-04T10:48:15;4.40;;;2.65;;
6527;SDS011;64597;42.664;23.256;2023-12-04T10:50:45;9.52;;;4.30;;
6527;SDS011;64597;42.664;23.256;2023-12-04T10:53:12;5.65;;;2.78;;
6527;SDS011;64597;42.664;23.256;2023-12-04T10:55:39;4.57;;;2.50;;
6527;SDS011;64597;42.664;23.256;2023-12-04T10:58:10;9.40;;;4.70;;
6527;SDS011;64597;42.664;23.256;2023-12-04T11:00:42;5.45;;;2.80;;
6527;SDS011;64597;42.664;23.256;2023-12-04T11:03:10;5.75;;;3.22;;
6527;SDS011;64597;42.664;23.256;2023-12-04T11:05:43;5.65;;;3.22;;
6527;SDS011;64597;42.664;23.256;2023-12-04T11:08:11;4.25;;;2.78;;
6527;SDS011;64597;42.664;23.256;2023-12-04T11:13:42;4.57;;;2.53;;
6527;SDS011;64597;42.664;23.256;2023-12-04T11:16:16;4.25;;;2.65;;
6527;SDS011;64597;42.664;23.256;2023-12-04T11:21:45;2.88;;;2.38;;
6527;SDS011;64597;42.664;23.256;2023-12-04T11:24:11;9.75;;;4.95;;
6527;SDS011;64597;42.664;23.256;2023-12-04T11:26:38;4.05;;;2.88;;
6527;SDS011;64597;42.664;23.256;2023-12-04T11:29:06;5.55;;;2.53;;
6527;SDS011;64597;42.664;23.256;2023-12-04T11:31:34;4.05;;;2.47;;
6527;SDS011;64597;42.664;23.256;2023-12-04T11:34:01;5.22;;;2.53;;
6527;SDS011;64597;42.664;23.256;2023-12-04T11:36:28;4.65;;;2.78;;
6527;SDS011;64597;42.664;23.256;2023-12-04T11:38:53;5.18;;;2.78;;
6527;SDS011;64597;42.664;23.256;2023-12-04T11:41:20;4.82;;;2.70;;
6527;SDS011;64597;42.664;23.256;2023-12-04T11:43:47;3.88;;;2.30;;
6527;SDS011;64597;42.664;23.256;2023-12-04T11:46:13;6.65;;;2.85;;
6527;SDS011;64597;42.664;23.256;2023-12-04T11:48:50;5.53;;;3.00;;
6527;SDS011;64597;42.664;23.256;2023-12-04T11:54:03;5.30;;;2.88;;
6527;SDS011;64597;42.664;23.256;2023-12-04T11:56:32;4.38;;;2.58;;
6527;SDS011;64597;42.664;23.256;2023-12-04T11:59:05;7.10;;;3.67;;
6527;SDS011;64597;42.664;23.256;2023-12-04T12:01:37;7.15;;;3.53;;
6527;SDS011;64597;42.664;23.256;2023-12-04T12:04:07;5.38;;;3.35;;
6527;SDS011;64597;42.664;23.256;2023-12-04T12:06:33;6.82;;;3.05;;
6527;SDS011;64597;42.664;23.256;2023-12-04T12:08:58;6.53;;;3.67;;
6527;SDS011;64597;42.664;23.256;2023-12-04T12:11:25;5.70;;;3.20;;
6527;SDS011;64597;42.664;23.256;2023-12-04T12:13:53;6.80;;;3.45;;
6527;SDS011;64597;42.664;23.256;2023-12-04T12:16:21;5.82;;;3.92;;
6527;SDS011;64597;42.664;23.256;2023-12-04T12:18:47;5.25;;;3.30;;
6527;SDS011;64597;42.664;23.256;2023-12-04T12:21:12;8.65;;;3.72;;
6527;SDS011;64597;42.664;23.256;2023-12-04T12:23:38;5.93;;;3.78;;
6527;SDS011;64597;42.664;23.256;2023-12-04T12:26:04;6.03;;;3.50;;
6527;SDS011;64597;42.664;23.256;2023-12-04T12:28:30;5.43;;;3.17;;
6527;SDS011;64597;42.664;23.256;2023-12-04T12:30:56;5.07;;;3.30;;
6527;SDS011;64597;42.664;23.256;2023-12-04T12:33:21;6.95;;;3.38;;
6527;SDS011;64597;42.664;23.256;2023-12-04T12:35:48;4.78;;;3.20;;
6527;SDS011;64597;42.664;23.256;2023-12-04T12:38:15;5.78;;;3.38;;
6527;SDS011;64597;42.664;23.256;2023-12-04T12:40:43;8.07;;;2.75;;
6527;SDS011;64597;42.664;23.256;2023-12-04T12:43:09;6.70;;;3.45;;
6527;SDS011;64597;42.664;23.256;2023-12-04T12:45:44;6.07;;;3.35;;
6527;SDS011;64597;42.664;23.256;2023-12-04T12:48:13;6.40;;;3.03;;
6527;SDS011;64597;42.664;23.256;2023-12-04T12:50:39;5.07;;;2.92;;
6527;SDS011;64597;42.664;23.256;2023-12-04T12:53:06;7.68;;;3.92;;
6527;SDS011;64597;42.664;23.256;2023-12-04T12:55:31;8.52;;;3.67;;
6527;SDS011;64597;42.664;23.256;2023-12-04T12:57:57;6.00;;;3.63;;
6527;SDS011;64597;42.664;23.256;2023-12-04T13:00:22;7.55;;;4.10;;
6527;SDS011;64597;42.664;23.256;2023-12-04T13:02:48;6.10;;;3.75;;
6527;SDS011;64597;42.664;23.256;2023-12-04T13:05:14;4.95;;;3.05;;
6527;SDS011;64597;42.664;23.256;2023-12-04T13:10:07;13.05;;;3.63;;
6527;SDS011;64597;42.664;23.256;2023-12-04T13:12:33;5.43;;;3.00;;
6527;SDS011;64597;42.664;23.256;2023-12-04T13:14:59;7.22;;;4.60;;
6527;SDS011;64597;42.664;23.256;2023-12-04T13:17:24;6.45;;;3.92;;
6527;SDS011;64597;42.664;23.256;2023-12-04T13:19:50;7.15;;;4.60;;
6527;SDS011;64597;42.664;23.256;2023-12-04T13:22:15;8.48;;;4.00;;
6527;SDS011;64597;42.664;23.256;2023-12-04T13:24:41;7.20;;;3.97;;
6527;SDS011;64597;42.664;23.256;2023-12-04T13:27:07;8.32;;;4.07;;
6527;SDS011;64597;42.664;23.256;2023-12-04T13:29:33;8.05;;;4.57;;
6527;SDS011;64597;42.664;23.256;2023-12-04T13:32:01;6.60;;;4.10;;
6527;SDS011;64597;42.664;23.256;2023-12-04T13:34:27;8.88;;;3.97;;
6527;SDS011;64597;42.664;23.256;2023-12-04T13:36:53;9.50;;;3.50;;
6527;SDS011;64597;42.664;23.256;2023-12-04T13:39:18;8.32;;;4.18;;
6527;SDS011;64597;42.664;23.256;2023-12-04T13:41:52;8.38;;;4.43;;
6527;SDS011;64597;42.664;23.256;2023-12-04T13:44:36;8.10;;;3.85;;
6527;SDS011;64597;42.664;23.256;2023-12-04T13:47:02;7.50;;;3.30;;
6527;SDS011;64597;42.664;23.256;2023-12-04T13:49:28;8.55;;;4.13;;
6527;SDS011;64597;42.664;23.256;2023-12-04T13:51:54;5.97;;;3.45;;
6527;SDS011;64597;42.664;23.256;2023-12-04T13:54:20;6.22;;;3.80;;
6527;SDS011;64597;42.664;23.256;2023-12-04T13:56:50;10.02;;;4.18;;
6527;SDS011;64597;42.664;23.256;2023-12-04T13:59:20;8.50;;;4.00;;
6527;SDS011;64597;42.664;23.256;2023-12-04T14:01:47;9.55;;;4.03;;
6527;SDS011;64597;42.664;23.256;2023-12-04T14:04:14;8.00;;;4.07;;
6527;SDS011;64597;42.664;23.256;2023-12-04T14:06:40;6.60;;;3.92;;
6527;SDS011;64597;42.664;23.256;2023-12-04T14:09:06;9.52;;;4.78;;
6527;SDS011;64597;42.664;23.256;2023-12-04T14:11:38;8.80;;;4.53;;
6527;SDS011;64597;42.664;23.256;2023-12-04T14:14:03;7.90;;;5.00;;
6527;SDS011;64597;42.664;23.256;2023-12-04T14:16:29;10.10;;;5.13;;
6527;SDS011;64597;42.664;23.256;2023-12-04T14:18:55;12.57;;;5.82;;
6527;SDS011;64597;42.664;23.256;2023-12-04T14:21:21;9.07;;;5.30;;
6527;SDS011;64597;42.664;23.256;2023-12-04T14:23:46;7.55;;;4.95;;
6527;SDS011;64597;42.664;23.256;2023-12-04T14:26:12;9.73;;;5.63;;
6527;SDS011;64597;42.664;23.256;2023-12-04T14:28:40;12.30;;;6.05;;
6527;SDS011;64597;42.664;23.256;2023-12-04T14:31:05;10.07;;;5.90;;
6527;SDS011;64597;42.664;23.256;2023-12-04T14:33:32;19.35;;;6.20;;
6527;SDS011;64597;42.664;23.256;2023-12-04T14:35:58;10.57;;;5.05;;
6527;SDS011;64597;42.664;23.256;2023-12-04T14:38:23;12.98;;;6.55;;
6527;SDS011;64597;42.664;23.256;2023-12-04T14:40:49;14.02;;;7.25;;
6527;SDS011;64597;42.664;23.256;2023-12-04T14:43:15;15.52;;;8.73;;
6527;SDS011;64597;42.664;23.256;2023-12-04T14:45:40;17.30;;;8.27;;
6527;SDS011;64597;42.664;23.256;2023-12-04T14:48:05;21.98;;;9.40;;
6527;SDS011;64597;42.664;23.256;2023-12-04T14:50:32;20.00;;;8.82;;
6527;SDS011;64597;42.664;23.256;2023-12-04T14:53:00;15.65;;;8.15;;
6527;SDS011;64597;42.664;23.256;2023-12-04T14:55:40;13.25;;;7.25;;
6527;SDS011;64597;42.664;23.256;2023-12-04T14:58:24;13.48;;;6.60;;
6527;SDS011;64597;42.664;23.256;2023-12-04T15:00:52;15.05;;;7.78;;